Time;durP1;ratioP1;P1;durP2;ratioP2;P2;SDS_P1;SDS_P2;PMS_P1;PMS_P2;Temp;Humidity;BMP_temperature;BMP_pressure;BME280_temperature;BME280_humidity;BME280_pressure;Samples;Min_cycle;Max_cycle;Signal;HPM_P1;HPM_P2
2024/02/13 00:01:39;;;;;;;17.40;6.28;;;;;;;9.48;73.82;101440.28;5052423;28;20029;-49
2024/02/13 00:04:05;;;;;;;15.88;6.32;;;;;;;9.52;73.45;101442.13;5052234;28;20114;-50
2024/02/13 00:06:30;;;;;;;14.25;6.55;;;;;;;9.46;73.23;101443.66;5052052;28;20048;-50
2024/02/13 00:08:55;;;;;;;15.43;6.40;;;;;;;9.36;73.72;101438.22;5051074;28;20037;-50
2024/02/13 00:11:21;;;;;;;13.60;6.43;;;;;;;9.47;73.58;101443.72;5052161;28;20048;-51
2024/02/13 00:13:46;;;;;;;16.67;6.57;;;;;;;9.38;73.46;101445.19;5050364;28;20032;-49
2024/02/13 00:16:11;;;;;;;13.45;6.50;;;;;;;9.48;73.20;101450.69;5052170;28;20120;-46
2024/02/13 00:18:37;;;;;;;17.33;7.57;;;;;;;9.44;73.58;101451.47;5052241;28;20025;-52
2024/02/13 00:21:02;;;;;;;14.25;7.35;;;;;;;9.31;74.55;101457.16;5051747;28;20080;-48
2024/02/13 00:23:28;;;;;;;13.82;6.90;;;;;;;9.50;73.63;101453.34;5052221;28;20036;-51
2024/02/13 00:25:53;;;;;;;15.77;7.80;;;;;;;9.48;73.65;101455.91;5051465;28;20044;-52
2024/02/13 00:28:19;;;;;;;16.70;7.53;;;;;;;9.46;73.14;101461.88;5051713;28;20025;-49
2024/02/13 00:30:45;;;;;;;16.73;7.97;;;;;;;9.41;72.73;101458.28;5050988;28;20067;-49
2024/02/13 00:33:10;;;;;;;19.45;8.07;;;;;;;9.41;72.98;101460.88;5051376;28;20033;-50
2024/02/13 00:35:36;;;;;;;15.50;8.50;;;;;;;9.40;72.93;101470.41;5051440;28;20037;-52
2024/02/13 00:38:01;;;;;;;19.15;8.38;;;;;;;9.37;72.91;101467.75;5051154;28;20029;-50
2024/02/13 00:40:26;;;;;;;19.05;8.75;;;;;;;9.23;73.25;101469.06;5051337;28;20453;-48
2024/02/13 00:42:52;;;;;;;16.30;8.80;;;;;;;9.34;73.45;101476.31;5050993;28;20033;-50
2024/02/13 00:45:18;;;;;;;20.30;9.30;;;;;;;9.31;73.18;101471.06;5050987;28;20513;-51
2024/02/13 00:47:43;;;;;;;19.30;9.10;;;;;;;9.30;73.30;101473.59;5050660;28;20132;-50
2024/02/13 00:50:09;;;;;;;17.52;9.55;;;;;;;9.28;73.11;101478.75;5050723;28;20037;-47
2024/02/13 00:52:39;;;;;;;17.60;9.05;;;;;;;9.32;73.26;101485.84;5051298;28;20033;-50
2024/02/13 00:55:07;;;;;;;19.67;10.32;;;;;;;9.20;73.54;101477.69;5050736;28;20514;-48
2024/02/13 00:57:33;;;;;;;21.55;10.90;;;;;;;9.21;73.82;101478.56;5049932;28;20029;-52
2024/02/13 00:59:59;;;;;;;25.15;9.95;;;;;;;9.26;73.00;101484.78;5050216;28;20037;-49
2024/02/13 01:02:26;;;;;;;21.77;10.82;;;;;;;9.21;73.52;101487.22;5051058;28;20033;-50
2024/02/13 01:04:51;;;;;;;22.58;10.90;;;;;;;9.27;74.05;101487.41;5050714;28;20037;-48
2024/02/13 01:07:19;;;;;;;23.90;11.30;;;;;;;9.19;73.92;101488.94;5050776;28;20043;-52
2024/02/13 01:09:45;;;;;;;24.05;10.85;;;;;;;9.30;73.77;101489.22;5049824;28;20551;-52
2024/02/13 01:12:10;;;;;;;32.78;12.73;;;;;;;9.19;74.24;101488.94;5050833;28;20112;-49
2024/02/13 01:14:37;;;;;;;21.35;12.27;;;;;;;9.23;74.66;101493.38;5050910;28;20479;-49
2024/02/13 01:17:02;;;;;;;25.95;12.50;;;;;;;9.25;74.63;101490.81;5050409;28;20083;-50
2024/02/13 01:19:28;;;;;;;26.48;12.98;;;;;;;9.29;74.66;101498.75;5050265;28;20071;-48
2024/02/13 01:21:53;;;;;;;26.20;12.95;;;;;;;9.42;74.28;101494.75;5050391;28;20037;-48
2024/02/13 01:24:18;;;;;;;26.33;13.93;;;;;;;9.33;74.49;101497.97;5050838;28;20034;-50
2024/02/13 01:26:44;;;;;;;27.05;13.18;;;;;;;9.31;74.07;101489.28;5050100;28;20072;-49
2024/02/13 01:29:11;;;;;;;32.35;15.07;;;;;;;9.27;75.44;101497.81;5049992;28;20035;-52
2024/02/13 01:31:37;;;;;;;27.63;15.13;;;;;;;9.39;74.87;101502.50;5050810;28;20029;-49
2024/02/13 01:34:03;;;;;;;34.03;15.88;;;;;;;9.41;74.62;101497.31;5050016;28;20040;-50
2024/02/13 01:36:28;;;;;;;28.25;15.32;;;;;;;9.42;75.34;101497.38;5050750;28;20033;-49
2024/02/13 01:38:54;;;;;;;30.48;16.02;;;;;;;9.48;74.56;101502.75;5049624;28;20565;-47
2024/02/13 01:41:20;;;;;;;31.30;15.60;;;;;;;9.46;74.60;101500.94;5050445;28;20129;-49
2024/02/13 01:43:46;;;;;;;35.60;16.00;;;;;;;9.37;74.69;101501.56;5049540;28;20123;-51
2024/02/13 01:46:12;;;;;;;27.58;15.13;;;;;;;9.49;74.32;101490.63;5049734;28;20044;-51
2024/02/13 01:48:38;;;;;;;34.60;14.75;;;;;;;9.52;73.62;101491.56;5049857;28;20068;-47
2024/02/13 01:51:05;;;;;;;32.40;16.55;;;;;;;9.46;74.52;101487.91;5049784;28;20499;-48
2024/02/13 01:53:31;;;;;;;32.67;17.20;;;;;;;9.20;75.52;101488.09;5048639;28;20407;-48
2024/02/13 01:56:00;;;;;;;32.75;16.13;;;;;;;9.24;75.67;101494.25;5049887;28;20044;-48
2024/02/13 01:58:26;;;;;;;31.90;16.88;;;;;;;9.36;75.71;101492.00;5050175;28;20606;-48
2024/02/13 02:00:59;;;;;;;33.15;17.02;;;;;;;9.60;74.63;101483.97;5049051;28;20137;-48
2024/02/13 02:03:31;;;;;;;31.02;15.93;;;;;;;9.56;74.37;101493.44;5049862;28;20040;-50
2024/02/13 02:06:05;;;;;;;28.48;16.25;;;;;;;9.50;74.70;101490.66;5047925;28;20518;-50
2024/02/13 02:08:30;;;;;;;29.92;16.60;;;;;;;9.55;74.88;101490.78;5050003;28;20120;-48
2024/02/13 02:10:57;;;;;;;32.40;16.08;;;;;;;9.48;74.81;101488.84;5049195;28;20111;-52
2024/02/13 02:13:24;;;;;;;33.25;15.75;;;;;;;9.62;74.59;101492.72;5048784;28;20037;-49
2024/02/13 02:15:49;;;;;;;28.88;15.95;;;;;;;9.59;74.52;101493.50;5049575;28;20502;-51
2024/02/13 02:18:15;;;;;;;29.48;15.68;;;;;;;9.64;74.46;101491.91;5050003;28;20040;-50
2024/02/13 02:20:40;;;;;;;28.65;15.68;;;;;;;9.64;74.36;101502.31;5048753;28;20033;-51
2024/02/13 02:23:07;;;;;;;26.50;14.85;;;;;;;9.69;74.21;101498.13;5050779;28;20040;-47
2024/02/13 02:25:32;;;;;;;25.95;15.10;;;;;;;9.69;73.86;101500.75;5050733;28;20029;-48
2024/02/13 02:27:57;;;;;;;31.02;15.30;;;;;;;9.55;74.75;101502.06;5050179;28;20414;-49
2024/02/13 02:30:23;;;;;;;27.10;14.75;;;;;;;9.71;73.77;101500.75;5049376;28;20056;-50
2024/02/13 02:32:48;;;;;;;24.50;14.45;;;;;;;9.61;74.26;101498.75;5048837;28;20041;-50
2024/02/13 02:35:16;;;;;;;25.83;14.32;;;;;;;9.65;73.84;101496.28;5049605;28;20505;-48
2024/02/13 02:37:46;;;;;;;24.83;13.32;;;;;;;9.67;73.91;101499.81;5048920;28;20483;-47
2024/02/13 02:40:12;;;;;;;28.17;14.45;;;;;;;9.53;73.71;101503.75;5049152;28;20033;-49
2024/02/13 02:42:37;;;;;;;23.33;13.82;;;;;;;9.70;73.52;101502.47;5049389;28;20136;-51
2024/02/13 02:45:06;;;;;;;29.50;14.05;;;;;;;9.51;73.58;101508.06;5048852;28;20025;-52
2024/02/13 02:47:31;;;;;;;24.02;13.73;;;;;;;9.48;73.52;101501.84;5049476;28;20039;-50
2024/02/13 02:49:57;;;;;;;21.70;12.57;;;;;;;9.51;73.81;101504.56;5048408;28;20040;-56
2024/02/13 02:52:22;;;;;;;26.05;13.10;;;;;;;9.40;73.63;101509.44;5049871;28;20063;-49
2024/02/13 02:54:47;;;;;;;26.75;13.40;;;;;;;9.25;73.42;101512.50;5039275;28;20214;-48
2024/02/13 02:57:13;;;;;;;25.15;12.95;;;;;;;9.42;73.30;101514.69;5049021;28;20033;-49
2024/02/13 02:59:39;;;;;;;24.75;12.30;;;;;;;9.43;73.08;101509.56;5048648;28;20037;-48
2024/02/13 03:02:04;;;;;;;23.95;12.18;;;;;;;9.32;72.82;101509.25;5048709;28;20079;-49
2024/02/13 03:04:29;;;;;;;23.70;11.90;;;;;;;9.26;73.11;101506.47;5049212;28;20037;-51
2024/02/13 03:06:55;;;;;;;23.63;11.90;;;;;;;9.30;72.99;101510.03;5048547;28;20208;-49
2024/02/13 03:09:20;;;;;;;24.02;11.68;;;;;;;9.28;72.95;101503.91;5050327;28;20483;-48
2024/02/13 03:11:47;;;;;;;22.98;11.43;;;;;;;9.06;73.58;101504.13;5052572;28;20047;-52
2024/02/13 03:14:13;;;;;;;23.38;12.07;;;;;;;9.19;73.59;101511.44;5053181;28;20032;-49
2024/02/13 03:16:40;;;;;;;25.00;11.77;;;;;;;9.10;73.07;101512.06;5053008;28;20419;-52
2024/02/13 03:19:06;;;;;;;23.83;11.38;;;;;;;9.16;73.88;101509.63;5052243;28;20033;-47
2024/02/13 03:21:32;;;;;;;20.30;10.60;;;;;;;9.17;73.37;101505.31;5053205;28;20114;-50
2024/02/13 03:23:58;;;;;;;16.98;10.30;;;;;;;9.07;73.43;101508.50;5052324;28;20087;-51
2024/02/13 03:26:23;;;;;;;18.75;10.07;;;;;;;9.15;73.36;101520.00;5052940;28;20044;-51
2024/02/13 03:28:49;;;;;;;21.23;10.18;;;;;;;9.14;73.37;101513.03;5051971;28;20183;-51
2024/02/13 03:31:14;;;;;;;21.77;10.30;;;;;;;9.06;73.88;101520.63;5053471;28;20544;-47
2024/02/13 03:33:39;;;;;;;17.25;9.65;;;;;;;9.09;73.22;101522.44;5053255;28;20039;-47
2024/02/13 03:36:05;;;;;;;19.55;9.48;;;;;;;9.09;73.65;101523.28;5052440;28;20112;-47
2024/02/13 03:38:31;;;;;;;19.55;10.02;;;;;;;9.16;73.59;101522.63;5052658;28;20049;-47
2024/02/13 03:40:56;;;;;;;17.23;9.32;;;;;;;9.12;73.28;101523.41;5052352;28;20055;-47
2024/02/13 03:43:22;;;;;;;20.15;9.13;;;;;;;9.15;73.05;101525.22;5052562;28;20033;-48
2024/02/13 03:45:48;;;;;;;20.55;9.65;;;;;;;9.08;73.21;101518.94;5051083;28;20033;-52
2024/02/13 03:48:14;;;;;;;22.98;9.63;;;;;;;8.93;73.07;101526.28;5052825;28;20468;-50
2024/02/13 03:50:39;;;;;;;19.73;8.85;;;;;;;8.98;73.60;101522.09;5052343;28;20064;-48
2024/02/13 03:53:05;;;;;;;17.58;9.13;;;;;;;9.13;73.66;101512.16;5051287;28;20025;-47
2024/02/13 03:55:30;;;;;;;25.52;10.38;;;;;;;9.02;73.81;101520.47;5052270;28;20043;-48
2024/02/13 03:57:57;;;;;;;18.02;9.88;;;;;;;9.16;72.95;101525.22;5051750;28;20045;-51
2024/02/13 04:00:22;;;;;;;20.98;9.77;;;;;;;9.12;72.81;101528.59;5051982;28;20033;-51
2024/02/13 04:02:48;;;;;;;21.83;8.73;;;;;;;9.17;73.11;101523.53;5051748;28;20040;-51
2024/02/13 04:05:13;;;;;;;24.40;9.73;;;;;;;9.14;73.10;101526.06;5052353;28;20475;-49
2024/02/13 04:07:38;;;;;;;21.95;9.93;;;;;;;9.09;72.86;101519.84;5051990;28;20458;-50
2024/02/13 04:10:04;;;;;;;24.13;10.57;;;;;;;9.14;72.89;101526.94;5051193;28;20052;-50
2024/02/13 04:12:29;;;;;;;25.35;11.00;;;;;;;9.00;73.88;101537.75;5052260;28;20056;-51
2024/02/13 04:14:55;;;;;;;21.10;10.35;;;;;;;9.06;73.16;101528.41;5051890;28;20128;-48
2024/02/13 04:17:21;;;;;;;24.27;11.00;;;;;;;8.95;74.77;101530.69;5052086;28;20035;-50
2024/02/13 04:19:46;;;;;;;23.10;10.73;;;;;;;8.98;74.43;101529.88;5050475;28;20048;-48
2024/02/13 04:22:12;;;;;;;19.15;10.57;;;;;;;9.14;74.25;101526.94;5052918;28;20029;-48
2024/02/13 04:24:37;;;;;;;27.33;11.20;;;;;;;9.22;73.96;101530.63;5053055;28;20028;-50
2024/02/13 04:27:03;;;;;;;20.23;10.50;;;;;;;9.25;73.81;101532.44;5051701;28;20099;-51
2024/02/13 04:29:28;;;;;;;24.17;10.50;;;;;;;9.04;74.81;101535.28;5051917;28;20063;-50
2024/02/13 04:31:54;;;;;;;23.58;10.98;;;;;;;9.13;73.90;101529.47;5051712;28;20541;-48
2024/02/13 04:34:19;;;;;;;23.23;11.02;;;;;;;9.23;73.90;101529.78;5051011;28;20040;-51
2024/02/13 04:36:44;;;;;;;20.50;10.50;;;;;;;9.10;74.39;101534.56;5051430;28;20033;-48
2024/02/13 04:39:10;;;;;;;24.50;10.60;;;;;;;9.21;74.15;101541.00;5050510;28;20025;-48
2024/02/13 04:41:36;;;;;;;21.05;10.77;;;;;;;9.07;75.10;101544.91;5051366;28;20029;-50
2024/02/13 04:44:02;;;;;;;24.98;11.13;;;;;;;9.08;75.09;101542.34;5050925;28;20502;-49
2024/02/13 04:46:27;;;;;;;26.10;10.95;;;;;;;9.21;74.71;101544.47;5051025;28;20036;-50
2024/02/13 04:48:53;;;;;;;23.65;10.88;;;;;;;9.30;74.60;101542.16;5050544;28;20048;-47
2024/02/13 04:51:18;;;;;;;22.77;10.52;;;;;;;9.30;74.34;101536.94;5051503;28;20116;-51
2024/02/13 04:53:44;;;;;;;23.98;10.55;;;;;;;9.30;74.20;101542.16;5051002;28;20040;-50
2024/02/13 04:56:09;;;;;;;22.25;10.35;;;;;;;9.29;74.30;101537.78;5050998;28;20025;-48
2024/02/13 04:58:36;;;;;;;26.45;10.80;;;;;;;9.23;74.84;101534.09;5050734;28;20033;-50
2024/02/13 05:01:04;;;;;;;19.67;10.10;;;;;;;9.33;74.83;101539.63;5050708;28;20177;-49
2024/02/13 05:08:57;;;;;;;21.92;10.57;;;;;;;9.29;74.58;101540.38;5050262;28;20052;-50
2024/02/13 05:11:23;;;;;;;20.95;9.45;;;;;;;9.37;74.35;101532.78;5050960;28;20476;-49
2024/02/13 05:13:49;;;;;;;22.77;10.00;;;;;;;9.34;74.09;101530.09;5050511;28;20033;-50
2024/02/13 05:16:17;;;;;;;20.85;9.82;;;;;;;9.31;73.96;101532.63;5050998;28;20032;-53
2024/02/13 05:18:43;;;;;;;22.40;9.57;;;;;;;9.34;73.70;101530.09;5049509;28;20033;-51
2024/02/13 05:21:08;;;;;;;24.13;10.02;;;;;;;9.17;74.56;101541.72;5050735;28;20640;-49
2024/02/13 05:23:34;;;;;;;19.95;9.27;;;;;;;9.23;75.44;101532.38;5050412;28;20049;-48
2024/02/13 05:25:59;;;;;;;20.58;9.07;;;;;;;9.29;74.76;101534.28;5050050;28;20037;-50
2024/02/13 05:28:25;;;;;;;22.80;8.77;;;;;;;9.32;75.08;101534.38;5050696;28;20029;-48
2024/02/13 05:30:51;;;;;;;18.55;8.10;;;;;;;9.39;74.16;101536.34;5049846;28;20498;-46
2024/02/13 05:33:16;;;;;;;21.92;8.50;;;;;;;9.33;74.53;101534.41;5050658;28;20082;-47
2024/02/13 05:35:44;;;;;;;21.23;7.93;;;;;;;9.31;74.61;101540.44;5050699;28;20056;-51
2024/02/13 05:38:09;;;;;;;19.52;8.10;;;;;;;9.24;74.45;101530.69;5050418;28;20029;-50
2024/02/13 05:40:36;;;;;;;17.00;7.47;;;;;;;9.34;74.61;101525.78;5050134;28;20051;-50
2024/02/13 05:43:01;;;;;;;17.10;7.68;;;;;;;9.22;74.68;101530.63;5049926;28;20507;-47
2024/02/13 05:45:26;;;;;;;21.05;8.05;;;;;;;9.27;75.04;101533.38;5050231;28;20132;-48
2024/02/13 05:47:52;;;;;;;18.52;7.78;;;;;;;9.37;74.38;101532.78;5049736;28;20086;-49
2024/02/13 05:50:19;;;;;;;18.55;7.93;;;;;;;9.44;74.69;101528.66;5049997;28;20061;-49
2024/02/13 05:52:47;;;;;;;20.00;8.10;;;;;;;9.36;74.25;101523.22;5049705;28;20561;-49
2024/02/13 05:55:12;;;;;;;19.50;7.78;;;;;;;9.34;74.98;101528.38;5050482;28;20033;-49
2024/02/13 05:57:41;;;;;;;21.15;7.88;;;;;;;9.39;74.23;101528.53;5049131;28;20530;-51
2024/02/13 06:00:09;;;;;;;18.92;8.05;;;;;;;9.31;74.47;101520.50;5050107;28;20029;-47
2024/02/13 06:02:36;;;;;;;18.33;8.27;;;;;;;9.38;74.47;101524.16;5050088;28;20033;-51
2024/02/13 06:05:01;;;;;;;17.33;7.75;;;;;;;9.37;74.65;101527.59;5049705;28;20115;-51
2024/02/13 06:07:27;;;;;;;20.95;8.10;;;;;;;9.28;74.93;101535.13;5050158;28;20037;-49
2024/02/13 06:09:53;;;;;;;21.27;7.70;;;;;;;9.26;75.27;101529.00;5049116;28;20128;-49
2024/02/13 06:12:18;;;;;;;17.67;7.75;;;;;;;9.40;74.73;101535.47;5050322;28;20044;-50
2024/02/13 06:14:43;;;;;;;16.50;7.47;;;;;;;9.42;74.29;101538.13;5050499;28;20041;-50
2024/02/13 06:17:09;;;;;;;18.52;7.95;;;;;;;9.48;74.18;101547.00;5050422;28;20170;-49
2024/02/13 06:19:34;;;;;;;15.80;7.75;;;;;;;9.33;74.88;101549.16;5049794;28;20033;-49
2024/02/13 06:22:00;;;;;;;21.23;8.90;;;;;;;9.14;75.31;101552.06;5050012;28;20071;-47
2024/02/13 06:24:25;;;;;;;19.35;8.93;;;;;;;9.30;75.25;101554.25;5050383;28;20033;-49
2024/02/13 06:26:51;;;;;;;16.65;9.20;;;;;;;9.25;74.85;101551.53;5048903;28;20178;-50
2024/02/13 06:29:16;;;;;;;23.05;9.27;;;;;;;9.36;74.32;101549.25;5049659;28;20112;-47
2024/02/13 06:31:42;;;;;;;17.38;8.90;;;;;;;9.22;74.74;101547.94;5049421;28;20080;-48
2024/02/13 06:34:07;;;;;;;22.58;8.57;;;;;;;9.29;74.62;101548.19;5050371;28;20025;-48
2024/02/13 06:36:33;;;;;;;18.15;8.50;;;;;;;9.34;74.05;101543.97;5050190;28;20110;-51
2024/02/13 06:38:58;;;;;;;16.00;8.52;;;;;;;9.16;74.63;101548.66;5048698;28;20033;-48
2024/02/13 06:41:24;;;;;;;19.73;9.45;;;;;;;9.15;74.77;101553.84;5049830;28;20112;-48
2024/02/13 06:43:50;;;;;;;16.70;8.80;;;;;;;9.26;74.46;101560.22;5048353;28;20033;-47
2024/02/13 06:46:16;;;;;;;22.42;8.25;;;;;;;8.80;75.96;101558.81;5049228;28;20411;-47
2024/02/13 06:48:42;;;;;;;18.92;8.43;;;;;;;9.22;74.87;101559.25;5048367;28;20402;-48
2024/02/13 06:51:12;;;;;;;16.13;8.13;;;;;;;9.35;73.80;101563.09;5049618;28;20116;-48
2024/02/13 06:53:38;;;;;;;19.13;8.07;;;;;;;9.31;72.95;101566.44;5049535;28;20036;-47
2024/02/13 06:56:04;;;;;;;15.73;7.78;;;;;;;9.17;73.58;101566.03;5048648;28;20029;-49
2024/02/13 06:58:29;;;;;;;19.25;7.43;;;;;;;9.25;73.59;101571.47;5049447;28;20033;-49
2024/02/13 07:00:55;;;;;;;21.58;8.27;;;;;;;9.10;73.59;101571.88;5048971;28;20037;-50
2024/02/13 07:03:21;;;;;;;18.83;7.88;;;;;;;9.16;73.37;101563.38;5049720;28;20109;-47
2024/02/13 07:05:47;;;;;;;17.95;7.68;;;;;;;8.96;73.95;101568.00;5049208;28;20041;-49
2024/02/13 07:08:12;;;;;;;16.73;8.68;;;;;;;9.04;74.02;101570.81;5049455;28;20399;-50
2024/02/13 07:10:37;;;;;;;16.10;8.25;;;;;;;9.08;73.56;101576.16;5048951;28;20458;-47
2024/02/13 07:13:03;;;;;;;19.38;8.52;;;;;;;8.92;73.73;101587.81;5048745;28;20025;-50
2024/02/13 07:15:28;;;;;;;16.13;8.32;;;;;;;9.04;73.71;101594.22;5049072;28;20076;-47
2024/02/13 07:17:54;;;;;;;18.40;8.43;;;;;;;8.99;73.10;101598.41;5048918;28;20033;-48
2024/02/13 07:20:19;;;;;;;17.35;8.07;;;;;;;9.05;73.29;101599.47;5049334;28;20063;-49
2024/02/13 07:22:45;;;;;;;15.57;8.00;;;;;;;9.05;73.81;101607.28;5048787;28;20044;-49
2024/02/13 07:25:11;;;;;;;17.70;8.25;;;;;;;9.00;73.94;101618.38;5049301;28;20037;-50
2024/02/13 07:27:37;;;;;;;19.05;8.02;;;;;;;8.92;74.00;101616.41;5049094;28;20040;-48
2024/02/13 07:30:22;;;;;;;15.73;8.05;;;;;;;9.18;73.42;101616.34;5048154;28;20082;-48
2024/02/13 07:32:49;;;;;;;21.15;7.65;;;;;;;9.16;73.79;101615.41;5048013;28;20516;-47
2024/02/13 07:35:14;;;;;;;20.75;8.10;;;;;;;9.17;73.75;101625.88;5048783;28;20124;-50
2024/02/13 07:37:39;;;;;;;17.38;7.97;;;;;;;9.16;74.80;101623.22;5048900;28;20119;-49
2024/02/13 07:40:06;;;;;;;21.27;7.47;;;;;;;9.27;74.16;101624.44;5047809;28;20033;-52
2024/02/13 07:42:32;;;;;;;15.82;7.22;;;;;;;9.43;73.81;101631.88;5048934;28;20036;-48
2024/02/13 07:44:58;;;;;;;20.85;7.82;;;;;;;9.39;74.19;101631.75;5048544;28;20033;-50
2024/02/13 07:47:25;;;;;;;17.98;7.60;;;;;;;9.40;73.99;101623.94;5048792;28;20036;-54
2024/02/13 07:49:52;;;;;;;16.65;7.90;;;;;;;9.51;73.71;101625.19;5047966;28;20036;-48
2024/02/13 07:52:18;;;;;;;14.65;7.50;;;;;;;9.69;73.00;101635.25;5048731;28;20147;-51
2024/02/13 07:54:44;;;;;;;16.27;7.38;;;;;;;9.83;72.65;101644.31;5048715;28;20132;-49
2024/02/13 07:57:14;;;;;;;15.60;6.93;;;;;;;9.93;72.58;101641.16;5052507;28;20449;-51
2024/02/13 07:59:40;;;;;;;17.55;7.78;;;;;;;9.88;72.42;101641.88;5051867;28;20032;-48
2024/02/13 08:02:05;;;;;;;18.05;7.57;;;;;;;9.93;71.64;101651.56;5051968;28;20070;-50
2024/02/13 08:04:31;;;;;;;13.00;6.65;;;;;;;9.91;71.42;101650.63;5052247;28;20170;-52
2024/02/13 08:06:58;;;;;;;14.80;6.90;;;;;;;9.93;71.88;101648.06;5051603;28;20418;-48
2024/02/13 08:09:23;;;;;;;15.73;7.13;;;;;;;9.86;71.49;101656.56;5051594;28;20033;-49
2024/02/13 08:11:49;;;;;;;21.58;7.15;;;;;;;9.82;72.62;101654.72;5051432;28;20044;-47
2024/02/13 08:14:14;;;;;;;17.10;6.82;;;;;;;9.88;72.97;101645.31;5052120;28;20036;-48
2024/02/13 08:16:40;;;;;;;15.02;6.70;;;;;;;9.87;72.47;101653.13;5052011;28;20040;-49
2024/02/13 08:19:05;;;;;;;13.57;6.32;;;;;;;9.97;72.06;101644.72;5051151;28;20051;-47
2024/02/13 08:21:30;;;;;;;22.00;7.05;;;;;;;10.25;71.55;101646.38;5052017;28;20380;-47
2024/02/13 08:23:56;;;;;;;15.68;6.22;;;;;;;10.02;72.04;101645.72;5051322;28;20556;-52
2024/02/13 08:26:21;;;;;;;13.80;6.35;;;;;;;10.16;71.61;101644.38;5051619;28;20067;-48
2024/02/13 08:28:47;;;;;;;14.38;6.40;;;;;;;10.37;71.40;101646.72;5050813;28;20037;-49
2024/02/13 08:31:13;;;;;;;16.60;5.95;;;;;;;10.44;71.66;101652.13;5051817;28;20427;-51
2024/02/13 08:33:40;;;;;;;12.95;5.90;;;;;;;10.56;70.49;101657.66;5051742;28;20040;-48
2024/02/13 08:36:06;;;;;;;17.52;6.20;;;;;;;10.43;70.88;101670.34;5051226;28;20076;-51
2024/02/13 08:38:31;;;;;;;16.17;5.90;;;;;;;10.61;70.74;101668.22;5051667;28;20075;-48
2024/02/13 08:40:56;;;;;;;18.77;5.32;;;;;;;10.63;70.39;101679.56;5051064;28;20029;-51
2024/02/13 08:43:22;;;;;;;15.90;5.50;;;;;;;10.99;70.33;101679.59;5051463;28;20540;-51
2024/02/13 08:45:47;;;;;;;11.43;5.20;;;;;;;11.24;70.00;101676.72;5050846;28;20033;-49
2024/02/13 08:48:13;;;;;;;12.55;5.32;;;;;;;11.09;69.35;101672.88;5051256;28;20132;-48
2024/02/13 08:50:40;;;;;;;13.10;5.30;;;;;;;11.24;69.32;101674.13;5051118;28;20056;-49
2024/02/13 08:53:05;;;;;;;19.38;5.57;;;;;;;10.94;68.83;101676.88;5051031;28;20113;-47
2024/02/13 08:55:30;;;;;;;13.40;4.85;;;;;;;11.23;68.83;101688.00;5041262;28;20065;-52
2024/02/13 08:57:56;;;;;;;12.90;4.63;;;;;;;11.76;68.08;101677.94;5050244;28;20033;-50
2024/02/13 09:00:22;;;;;;;11.38;4.70;;;;;;;11.75;67.59;101689.22;5051013;28;20091;-50
2024/02/13 09:02:47;;;;;;;12.63;4.68;;;;;;;11.62;67.62;101679.31;5050566;28;20037;-50
2024/02/13 09:05:13;;;;;;;10.70;4.57;;;;;;;11.52;67.56;101675.66;5050894;28;20123;-51
2024/02/13 09:07:40;;;;;;;14.57;4.80;;;;;;;11.57;67.40;101692.28;5050301;28;20060;-51
2024/02/13 09:10:06;;;;;;;11.25;4.40;;;;;;;11.82;67.51;101685.91;5049821;28;20029;-48
2024/02/13 09:12:32;;;;;;;13.60;4.60;;;;;;;11.96;67.37;101681.81;5051328;28;20411;-51
2024/02/13 09:14:58;;;;;;;10.93;4.32;;;;;;;11.93;66.83;101680.91;5050806;28;20059;-48
2024/02/13 09:17:24;;;;;;;10.07;4.13;;;;;;;12.02;66.75;101678.44;5050853;28;20033;-47
2024/02/13 09:19:49;;;;;;;12.48;4.10;;;;;;;12.17;65.65;101681.38;5050064;28;20059;-49
2024/02/13 09:22:14;;;;;;;11.55;4.10;;;;;;;12.08;66.18;101673.34;5049830;28;20059;-49
2024/02/13 09:24:44;;;;;;;9.38;4.32;;;;;;;12.22;66.07;101674.50;5050926;28;20028;-49
2024/02/13 09:27:10;;;;;;;10.50;4.13;;;;;;;12.34;65.77;101677.34;5050167;28;20503;-48
2024/02/13 09:29:36;;;;;;;10.95;4.28;;;;;;;11.96;66.69;101691.41;5050247;28;20617;-47
2024/02/13 09:32:02;;;;;;;9.18;4.13;;;;;;;11.95;66.61;101687.03;5050446;28;20116;-50
2024/02/13 09:34:28;;;;;;;11.70;4.22;;;;;;;11.67;67.68;101681.19;5050613;28;20029;-50
2024/02/13 09:36:53;;;;;;;12.73;4.10;;;;;;;11.91;67.53;101680.84;5050325;28;20052;-48
2024/02/13 09:39:19;;;;;;;10.45;4.47;;;;;;;11.83;66.67;101697.25;5049947;28;20082;-48
2024/02/13 09:41:45;;;;;;;9.85;4.05;;;;;;;12.07;67.23;101692.53;5049757;28;20029;-50
2024/02/13 09:44:12;;;;;;;14.80;4.43;;;;;;;11.50;67.81;101687.78;5050297;28;20479;-50
2024/02/13 09:46:39;;;;;;;11.57;4.40;;;;;;;11.99;67.04;101681.91;5050353;28;20037;-48
2024/02/13 09:49:05;;;;;;;8.75;4.30;;;;;;;11.72;67.35;101687.38;5051721;28;20067;-48
2024/02/13 09:51:33;;;;;;;9.65;4.18;;;;;;;11.60;67.37;101678.41;5051655;28;20048;-51
2024/02/13 09:54:06;;;;;;;7.75;4.07;;;;;;;12.11;66.67;101679.53;5049920;28;20043;-49
2024/02/13 09:56:32;;;;;;;12.95;4.03;;;;;;;12.09;66.14;101676.00;5050303;28;20033;-48
2024/02/13 09:58:59;;;;;;;10.32;4.22;;;;;;;12.54;64.78;101669.88;5049179;28;20033;-47
2024/02/13 10:01:25;;;;;;;13.10;4.13;;;;;;;12.26;65.21;101678.94;5050201;28;20722;-48
2024/02/13 10:03:50;;;;;;;11.15;3.70;;;;;;;12.23;64.98;101673.66;5049681;28;20037;-46
2024/02/13 10:06:16;;;;;;;10.35;3.92;;;;;;;12.27;64.03;101679.81;5049800;28;20064;-49
2024/02/13 10:08:41;;;;;;;11.65;3.90;;;;;;;12.34;64.11;101685.22;5049545;28;20124;-53
2024/02/13 10:11:16;;;;;;;9.25;3.90;;;;;;;11.48;66.58;101693.78;5049906;28;20037;-48
2024/02/13 10:13:41;;;;;;;10.60;4.15;;;;;;;11.46;67.58;101691.19;5049718;28;20534;-48
2024/02/13 10:16:22;;;;;;;9.82;3.72;;;;;;;11.86;65.72;101692.94;5050106;28;20060;-52
2024/02/13 10:18:57;;;;;;;7.93;3.70;;;;;;;11.51;65.79;101691.28;5048639;28;20041;-51
2024/02/13 10:21:25;;;;;;;8.95;3.60;;;;;;;12.04;64.97;101689.81;5051654;28;20032;-46
2024/02/13 10:23:53;;;;;;;11.25;3.60;;;;;;;11.89;64.94;101700.88;5049883;28;20064;-46
2024/02/13 10:26:22;;;;;;;7.18;3.50;;;;;;;11.58;65.38;101704.50;5051228;28;20033;-47
2024/02/13 10:28:54;;;;;;;7.38;3.42;;;;;;;12.45;63.71;101691.50;5049296;28;20035;-48
2024/02/13 10:31:24;;;;;;;7.97;3.03;;;;;;;12.02;63.88;101695.03;5049994;28;20029;-48
2024/02/13 10:33:50;;;;;;;9.45;3.35;;;;;;;11.83;64.71;101705.09;5049480;28;20048;-47
2024/02/13 10:36:15;;;;;;;8.80;3.28;;;;;;;12.63;62.23;101685.72;5050219;28;20092;-49
2024/02/13 10:38:47;;;;;;;9.88;3.42;;;;;;;12.57;62.20;101690.84;5049365;28;20029;-49
2024/02/13 10:41:21;;;;;;;8.43;3.00;;;;;;;12.87;60.88;101699.25;5049408;28;20036;-51
2024/02/13 10:43:52;;;;;;;5.93;2.70;;;;;;;12.80;61.23;101701.75;5049029;28;20036;-52
2024/02/13 10:46:23;;;;;;;9.27;2.65;;;;;;;13.25;60.25;101699.91;5049307;28;20043;-50
2024/02/13 10:49:22;;;;;;;7.28;2.63;;;;;;;12.96;59.96;101702.03;5048572;28;20037;-50
2024/02/13 10:51:48;;;;;;;5.93;2.80;;;;;;;13.30;59.19;101699.97;5047409;28;20385;-48
2024/02/13 10:54:15;;;;;;;7.38;2.58;;;;;;;13.42;58.70;101696.69;5049347;28;20063;-47
2024/02/13 10:56:41;;;;;;;6.25;2.72;;;;;;;13.39;58.80;101701.00;5048892;28;20427;-49
2024/02/13 10:59:07;;;;;;;8.20;2.60;;;;;;;13.79;57.94;101699.81;5048684;28;20029;-48
2024/02/13 11:01:35;;;;;;;6.28;2.70;;;;;;;14.01;57.65;101706.25;5049385;28;20037;-50
2024/02/13 11:04:02;;;;;;;8.90;2.80;;;;;;;13.88;57.10;101699.06;5048863;28;20029;-53
2024/02/13 11:06:27;;;;;;;7.15;2.60;;;;;;;13.86;56.56;101703.41;5049154;28;20048;-51
2024/02/13 11:08:54;;;;;;;8.10;2.60;;;;;;;13.39;58.21;101700.13;5048206;28;20457;-49
2024/02/13 11:11:23;;;;;;;11.68;2.97;;;;;;;13.68;57.46;101701.41;5049253;28;20064;-48
2024/02/13 11:13:49;;;;;;;9.35;2.60;;;;;;;13.60;57.46;101703.03;5048764;28;20183;-47
2024/02/13 11:16:15;;;;;;;6.40;2.13;;;;;;;14.00;57.31;101693.09;5049245;28;20025;-51
2024/02/13 11:18:48;;;;;;;7.82;2.47;;;;;;;14.31;56.34;101696.97;5048842;28;20102;-50
2024/02/13 11:21:20;;;;;;;6.22;2.17;;;;;;;13.51;57.09;101695.06;5048930;28;20403;-51
2024/02/13 11:23:59;;;;;;;8.50;2.00;;;;;;;13.57;56.82;101697.78;5048731;28;20411;-49